Terminal Aerodrome Forecast
Issued by NWS

Current Version | Previous Version | Text Only | Print | Product List | Glossary On
Versions: 1 2 3 4 5 6 7 8 9 10 11 12 13 14 15 16 17 18 19 20 21 22 23 24 25 26 27 28 29 30 31 32 33 34 35
000 FTUS41 KGYX 051121 TAFMHT TAF KMHT 051121Z 0512/0612 28012KT P6SM SCT045 BKN080 FM051300 32010KT P6SM SCT050 BKN100 FM060000 33006KT P6SM SCT100=

USA.gov is the U.S. government's official web portal to all federal, state and local government web resources and services.